Time;durP1;ratioP1;P1;durP2;ratioP2;P2;SDS_P1;SDS_P2;PMS_P1;PMS_P2;Temp;Humidity;BMP_temperature;BMP_pressure;BME280_temperature;BME280_humidity;BME280_pressure;Samples;Min_cycle;Max_cycle;Signal;HPM_P1;HPM_P2
2021/01/12 00:02:03;;;;;;;23.08;15.25;;;0.70;99.70;;;;;;5048902;28;20198;-86
2021/01/12 00:04:32;;;;;;;18.58;16.35;;;0.70;99.50;;;;;;5048334;28;20217;-87
2021/01/12 00:06:58;;;;;;;21.48;16.40;;;0.80;99.40;;;;;;5049244;28;20187;-87
2021/01/12 00:09:25;;;;;;;19.95;15.90;;;0.90;99.20;;;;;;5052116;28;20217;-87
2021/01/12 00:11:53;;;;;;;21.38;15.52;;;0.90;99.10;;;;;;5049735;28;20202;-88
2021/01/12 00:14:31;;;;;;;24.70;16.83;;;0.90;99.00;;;;;;5048861;28;20226;-88
2021/01/12 00:16:57;;;;;;;21.88;15.77;;;0.80;99.00;;;;;;5047970;28;20234;-88
2021/01/12 00:19:23;;;;;;;25.40;15.80;;;0.70;99.10;;;;;;5055122;28;20203;-88
2021/01/12 00:21:50;;;;;;;23.75;15.77;;;0.70;99.10;;;;;;5051090;28;20198;-88
2021/01/12 00:24:17;;;;;;;23.48;15.18;;;0.50;99.30;;;;;;5048605;28;20223;-88
2021/01/12 00:26:43;;;;;;;25.38;16.77;;;0.50;99.60;;;;;;5047364;28;20186;-88
2021/01/12 00:29:09;;;;;;;18.73;14.20;;;0.40;99.80;;;;;;5046442;28;20203;-86
2021/01/12 00:31:38;;;;;;;22.55;14.90;;;0.50;99.90;;;;;;5048199;28;20195;-88
2021/01/12 00:34:04;;;;;;;17.33;13.23;;;0.50;99.90;;;;;;5048690;28;20264;-88
2021/01/12 00:36:31;;;;;;;18.58;14.48;;;0.60;99.90;;;;;;5048588;28;20259;-87
2021/01/12 00:38:58;;;;;;;18.42;14.02;;;0.70;99.90;;;;;;5050792;28;20216;-88
2021/01/12 00:41:24;;;;;;;19.17;15.10;;;0.70;99.80;;;;;;5050504;28;20203;-87
2021/01/12 00:43:51;;;;;;;24.13;16.27;;;0.70;99.70;;;;;;5050836;28;20599;-87
2021/01/12 00:46:17;;;;;;;20.38;13.95;;;0.70;99.60;;;;;;5054037;28;20195;-88
2021/01/12 00:48:43;;;;;;;21.35;14.73;;;0.70;99.50;;;;;;5054124;28;20190;-88
2021/01/12 00:51:09;;;;;;;22.13;14.30;;;0.70;99.40;;;;;;5052451;28;20206;-88
2021/01/12 00:53:35;;;;;;;20.70;15.43;;;0.80;99.40;;;;;;5051631;28;20729;-88
2021/01/12 00:56:11;;;;;;;22.23;15.63;;;0.80;99.20;;;;;;5052618;28;20207;-88
2021/01/12 00:58:37;;;;;;;19.73;13.73;;;0.90;99.20;;;;;;5053130;28;20198;-88
2021/01/12 01:01:03;;;;;;;19.15;14.63;;;0.90;99.10;;;;;;5055966;28;20192;-88
2021/01/12 01:03:29;;;;;;;21.75;14.40;;;0.90;98.90;;;;;;5049830;28;20217;-87
2021/01/12 01:05:55;;;;;;;19.80;13.73;;;1.00;98.90;;;;;;5052360;28;20194;-88
2021/01/12 01:08:21;;;;;;;21.52;13.73;;;1.00;98.80;;;;;;5051918;28;20190;-88
2021/01/12 01:10:48;;;;;;;23.63;14.65;;;1.00;98.70;;;;;;5054132;28;20217;-87
2021/01/12 01:13:15;;;;;;;19.70;14.52;;;1.00;98.70;;;;;;5049523;28;20269;-87
2021/01/12 01:15:41;;;;;;;18.92;14.45;;;1.00;98.60;;;;;;5051307;28;20194;-88
2021/01/12 01:18:07;;;;;;;22.30;15.57;;;1.10;98.60;;;;;;5051714;28;20217;-88
2021/01/12 01:20:33;;;;;;;23.05;15.70;;;1.10;98.50;;;;;;5052521;28;20195;-87
2021/01/12 01:22:59;;;;;;;21.10;15.75;;;1.10;98.50;;;;;;5053490;28;20568;-89
2021/01/12 01:25:25;;;;;;;19.17;12.68;;;1.10;98.60;;;;;;5053184;28;20198;-86
2021/01/12 01:27:52;;;;;;;19.02;14.18;;;1.20;98.50;;;;;;5052130;28;20578;-89
2021/01/12 01:30:21;;;;;;;15.88;12.45;;;1.20;98.30;;;;;;5052448;28;20340;-87
2021/01/12 01:32:47;;;;;;;23.15;14.50;;;1.30;98.30;;;;;;5046818;28;20199;-87
2021/01/12 01:35:13;;;;;;;21.33;15.00;;;1.20;98.00;;;;;;5049055;28;20211;-87
2021/01/12 01:37:39;;;;;;;19.17;14.32;;;1.30;98.10;;;;;;5050929;28;20284;-87
2021/01/12 01:40:06;;;;;;;24.23;15.18;;;1.30;98.20;;;;;;5051338;28;20209;-87
2021/01/12 01:42:35;;;;;;;19.08;13.20;;;1.30;98.10;;;;;;5053515;28;20195;-88
2021/01/12 01:45:03;;;;;;;17.40;13.57;;;1.40;98.20;;;;;;5049943;28;20337;-88
2021/01/12 01:47:30;;;;;;;15.10;11.85;;;1.40;98.20;;;;;;5050721;28;20198;-88
2021/01/12 01:49:56;;;;;;;17.10;12.30;;;1.40;98.60;;;;;;5050678;28;20273;-88
2021/01/12 01:52:25;;;;;;;16.98;13.07;;;1.40;98.60;;;;;;5056732;28;20206;-88
2021/01/12 01:54:53;;;;;;;27.70;13.55;;;1.40;98.70;;;;;;5050637;28;20222;-87
2021/01/12 01:57:20;;;;;;;17.55;11.65;;;1.40;98.60;;;;;;5049416;28;20226;-86
2021/01/12 01:59:46;;;;;;;16.60;12.55;;;1.40;98.30;;;;;;5049186;28;20195;-87
2021/01/12 02:02:13;;;;;;;16.45;11.80;;;1.50;98.50;;;;;;5053448;28;20671;-86
2021/01/12 02:04:42;;;;;;;17.08;13.05;;;1.50;98.50;;;;;;5050346;28;20211;-88
2021/01/12 02:07:12;;;;;;;13.63;10.45;;;1.50;98.70;;;;;;5049499;28;20292;-87
2021/01/12 02:09:45;;;;;;;14.85;10.95;;;1.40;98.80;;;;;;5054062;28;20790;-88
2021/01/12 02:12:16;;;;;;;15.25;12.27;;;1.50;98.80;;;;;;5051616;28;20217;-87
2021/01/12 02:14:44;;;;;;;17.50;11.75;;;1.60;98.90;;;;;;5051065;28;20273;-87
2021/01/12 02:17:10;;;;;;;15.43;10.73;;;1.60;99.00;;;;;;5052627;28;20676;-87
2021/01/12 02:19:38;;;;;;;13.48;10.68;;;1.50;99.00;;;;;;5050811;28;20675;-87
2021/01/12 02:22:07;;;;;;;14.88;10.68;;;1.50;98.90;;;;;;5048284;28;20205;-89
2021/01/12 02:24:36;;;;;;;14.68;10.57;;;1.60;98.90;;;;;;5049716;28;20276;-87
2021/01/12 02:27:03;;;;;;;16.85;11.00;;;1.60;98.80;;;;;;5051501;28;20198;-88
2021/01/12 02:29:29;;;;;;;16.83;10.77;;;1.60;98.80;;;;;;5050570;28;20206;-87
2021/01/12 02:31:55;;;;;;;16.52;10.40;;;1.60;98.90;;;;;;5050475;28;20195;-88
2021/01/12 02:34:23;;;;;;;15.65;10.77;;;1.70;98.90;;;;;;5052947;28;20691;-87
2021/01/12 02:36:49;;;;;;;15.18;11.40;;;1.70;98.90;;;;;;5055468;28;20207;-88
2021/01/12 02:39:16;;;;;;;14.23;9.75;;;1.70;98.90;;;;;;5052310;28;20206;-88
2021/01/12 02:41:43;;;;;;;14.02;10.60;;;1.70;98.90;;;;;;5049899;28;20226;-88
2021/01/12 02:44:22;;;;;;;13.63;9.40;;;1.70;98.90;;;;;;5051781;28;20214;-88
2021/01/12 02:46:49;;;;;;;13.50;8.98;;;1.70;99.00;;;;;;5051687;28;20277;-87
2021/01/12 02:49:15;;;;;;;14.57;9.90;;;1.80;99.10;;;;;;5048131;28;20690;-89
2021/01/12 02:51:41;;;;;;;15.55;9.48;;;1.80;99.20;;;;;;5051626;28;20203;-88
2021/01/12 02:54:07;;;;;;;11.77;7.90;;;1.80;99.20;;;;;;5051921;28;20218;-87
2021/01/12 02:56:34;;;;;;;14.05;9.20;;;1.80;99.20;;;;;;5054340;28;20215;-87
2021/01/12 02:59:01;;;;;;;10.48;7.97;;;1.90;99.10;;;;;;5050888;28;20198;-88
2021/01/12 03:01:28;;;;;;;10.90;8.93;;;2.00;99.00;;;;;;5051474;28;20202;-87
2021/01/12 03:03:54;;;;;;;12.32;9.02;;;2.00;99.10;;;;;;5054432;28;20219;-87
2021/01/12 03:06:22;;;;;;;11.52;8.48;;;2.00;99.00;;;;;;5052943;28;20206;-89
2021/01/12 03:08:48;;;;;;;9.68;7.15;;;2.00;98.90;;;;;;5047882;28;20567;-87
2021/01/12 03:11:14;;;;;;;12.25;8.45;;;2.00;99.00;;;;;;5043465;28;20205;-88
2021/01/12 03:13:40;;;;;;;10.77;7.75;;;2.10;98.80;;;;;;5048705;28;20223;-88
2021/01/12 03:16:08;;;;;;;12.50;8.02;;;2.10;98.60;;;;;;5052138;28;20587;-88
2021/01/12 03:18:34;;;;;;;10.02;6.38;;;2.00;98.70;;;;;;5048562;28;20236;-88
2021/01/12 03:21:00;;;;;;;9.15;7.03;;;2.00;98.60;;;;;;5043881;28;20206;-87
2021/01/12 03:23:26;;;;;;;11.05;8.20;;;2.00;98.90;;;;;;5047788;28;20225;-86
2021/01/12 03:25:52;;;;;;;9.00;7.40;;;2.10;98.80;;;;;;5051036;28;20257;-87
2021/01/12 03:28:18;;;;;;;10.13;7.90;;;2.10;98.90;;;;;;5056338;28;20197;-87
2021/01/12 03:30:45;;;;;;;9.35;7.00;;;2.10;98.80;;;;;;5056001;28;20253;-86
2021/01/12 03:33:12;;;;;;;12.60;8.10;;;2.10;98.70;;;;;;5052348;28;20221;-87
2021/01/12 03:35:38;;;;;;;9.18;7.45;;;2.20;98.70;;;;;;5050679;28;20200;-87
2021/01/12 03:38:04;;;;;;;7.00;5.55;;;2.20;98.80;;;;;;5052908;28;20226;-88
2021/01/12 03:40:30;;;;;;;9.35;6.70;;;2.20;98.90;;;;;;5046682;28;20608;-87
2021/01/12 03:42:56;;;;;;;11.52;7.80;;;2.20;99.00;;;;;;5047769;28;20226;-86
2021/01/12 03:45:23;;;;;;;10.13;7.43;;;2.20;99.00;;;;;;5051324;28;20269;-88
2021/01/12 03:47:49;;;;;;;15.07;7.80;;;2.20;99.00;;;;;;5048454;28;20310;-87
2021/01/12 03:50:16;;;;;;;9.80;7.73;;;2.30;99.10;;;;;;5048319;28;20686;-87
2021/01/12 03:52:42;;;;;;;8.10;5.75;;;2.30;99.20;;;;;;5048329;28;20992;-87
2021/01/12 03:55:09;;;;;;;7.82;6.43;;;2.30;99.30;;;;;;5046748;28;20204;-89
2021/01/12 03:57:35;;;;;;;11.10;7.88;;;2.30;99.30;;;;;;5046799;28;20242;-87
2021/01/12 04:00:03;;;;;;;9.27;6.20;;;2.30;99.40;;;;;;5049722;28;20198;-88
2021/01/12 04:02:29;;;;;;;13.63;6.30;;;2.30;99.60;;;;;;5048291;28;20198;-86
2021/01/12 04:04:56;;;;;;;8.73;6.57;;;2.30;99.80;;;;;;5045468;28;20461;-87
2021/01/12 04:07:23;;;;;;;10.18;6.05;;;2.30;99.90;;;;;;5049260;28;20282;-87
2021/01/12 04:09:50;;;;;;;9.98;6.65;;;2.30;99.90;;;;;;5047763;28;20207;-88
2021/01/12 04:12:16;;;;;;;9.70;6.38;;;2.30;99.90;;;;;;5044831;28;20649;-87
2021/01/12 04:14:42;;;;;;;7.85;6.55;;;2.40;99.90;;;;;;5047373;28;20223;-87
2021/01/12 04:17:08;;;;;;;8.43;6.20;;;2.40;99.90;;;;;;5044774;28;20956;-86
2021/01/12 04:19:34;;;;;;;7.75;6.03;;;2.40;99.90;;;;;;5052536;28;20660;-87
2021/01/12 04:22:01;;;;;;;10.67;6.30;;;2.40;99.90;;;;;;5048107;28;20919;-88
2021/01/12 04:24:28;;;;;;;8.75;6.50;;;2.40;99.90;;;;;;5049937;28;20524;-88
2021/01/12 04:26:54;;;;;;;8.13;6.82;;;2.40;99.90;;;;;;5044435;28;20208;-88
2021/01/12 04:29:20;;;;;;;9.00;6.53;;;2.50;99.90;;;;;;5044855;28;20222;-88
2021/01/12 04:31:49;;;;;;;12.93;6.07;;;2.50;99.90;;;;;;5048009;28;20210;-87
2021/01/12 04:34:15;;;;;;;10.27;6.07;;;2.50;99.90;;;;;;5052064;28;20224;-87
2021/01/12 04:36:41;;;;;;;7.50;5.70;;;2.50;99.90;;;;;;5047135;28;20473;-87
2021/01/12 04:39:08;;;;;;;8.43;7.30;;;2.50;99.90;;;;;;5044026;28;20824;-88
2021/01/12 04:41:35;;;;;;;10.23;6.82;;;2.50;99.90;;;;;;5048373;28;20200;-88
2021/01/12 04:44:01;;;;;;;7.65;6.70;;;2.50;99.90;;;;;;5051060;28;20273;-88
2021/01/12 04:46:27;;;;;;;10.45;6.68;;;2.50;99.90;;;;;;5052014;28;20859;-88
2021/01/12 04:48:54;;;;;;;10.23;7.40;;;2.60;99.90;;;;;;5045247;28;20223;-89
2021/01/12 04:51:27;;;;;;;10.65;7.20;;;2.60;99.90;;;;;;5051625;28;20253;-87
2021/01/12 04:53:53;;;;;;;10.60;6.20;;;2.50;99.90;;;;;;5056451;28;20228;-87
2021/01/12 04:56:21;;;;;;;9.98;7.47;;;2.60;99.90;;;;;;5048383;28;20256;-88
2021/01/12 04:58:49;;;;;;;7.80;6.55;;;2.50;99.90;;;;;;5046110;28;20297;-87
2021/01/12 05:01:18;;;;;;;9.15;6.30;;;2.50;99.90;;;;;;5046763;28;20197;-87
2021/01/12 05:03:45;;;;;;;9.48;6.40;;;2.50;99.90;;;;;;5047890;28;20215;-87
2021/01/12 05:06:12;;;;;;;10.18;6.85;;;2.50;99.90;;;;;;5047704;28;20196;-88
2021/01/12 05:08:42;;;;;;;9.25;6.85;;;2.50;99.90;;;;;;5052576;28;20207;-87
2021/01/12 05:11:09;;;;;;;10.93;6.85;;;2.50;99.90;;;;;;5041249;28;20198;-87
2021/01/12 05:13:38;;;;;;;10.17;7.40;;;2.50;99.90;;;;;;5052265;28;20230;-87
2021/01/12 05:16:08;;;;;;;11.38;7.55;;;2.50;99.90;;;;;;5047305;28;20450;-87
2021/01/12 05:18:38;;;;;;;13.95;8.13;;;2.60;99.90;;;;;;5047502;28;20236;-87
2021/01/12 05:21:06;;;;;;;10.65;7.85;;;2.60;99.90;;;;;;5048293;28;20232;-89
2021/01/12 05:23:47;;;;;;;9.85;7.20;;;2.60;99.90;;;;;;5054636;28;20219;-88
2021/01/12 05:26:16;;;;;;;11.73;7.82;;;2.60;99.90;;;;;;5050836;28;20195;-87
2021/01/12 05:28:42;;;;;;;10.45;7.72;;;2.60;99.90;;;;;;5052782;28;20195;-88
2021/01/12 05:31:11;;;;;;;11.23;7.82;;;2.60;99.90;;;;;;5053465;28;20195;-86
2021/01/12 05:33:40;;;;;;;10.00;6.93;;;2.60;99.90;;;;;;5052822;28;20302;-87
2021/01/12 05:36:07;;;;;;;9.88;7.90;;;2.60;99.90;;;;;;5046248;28;20195;-87
2021/01/12 05:38:33;;;;;;;11.13;7.68;;;2.60;99.90;;;;;;5050929;28;20216;-87
2021/01/12 05:41:01;;;;;;;12.73;8.80;;;2.50;99.90;;;;;;5052305;28;20675;-86
2021/01/12 05:43:36;;;;;;;12.18;8.20;;;2.60;99.90;;;;;;5049306;28;20630;-87
2021/01/12 05:46:06;;;;;;;12.13;8.10;;;2.60;99.90;;;;;;5049024;28;20253;-87
2021/01/12 05:48:35;;;;;;;11.27;7.95;;;2.60;99.90;;;;;;5049186;28;20194;-87
2021/01/12 05:51:04;;;;;;;10.33;8.20;;;2.60;99.90;;;;;;5053978;28;20282;-88
2021/01/12 05:53:50;;;;;;;12.20;8.10;;;2.60;99.90;;;;;;5050951;28;20495;-87
2021/01/12 05:56:21;;;;;;;10.93;7.67;;;2.60;99.90;;;;;;5037692;28;20446;-87
2021/01/12 05:58:49;;;;;;;8.98;6.78;;;2.70;99.90;;;;;;5048742;28;21001;-87
2021/01/12 06:01:24;;;;;;;8.70;6.73;;;2.70;99.90;;;;;;5047990;28;20197;-88
2021/01/12 06:03:52;;;;;;;8.80;7.03;;;2.70;99.90;;;;;;5051563;28;20465;-88
2021/01/12 06:06:19;;;;;;;7.60;5.78;;;2.70;99.90;;;;;;5053945;28;20529;-88
2021/01/12 06:08:49;;;;;;;9.38;6.50;;;2.70;99.90;;;;;;5052652;28;20200;-89
2021/01/12 06:11:18;;;;;;;8.38;6.03;;;2.70;99.90;;;;;;5055282;28;20282;-89
2021/01/12 06:13:53;;;;;;;8.07;5.50;;;2.70;99.90;;;;;;5050044;28;20712;-87
2021/01/12 06:16:23;;;;;;;8.75;7.05;;;2.80;99.90;;;;;;5048723;28;20199;-87
2021/01/12 06:19:05;;;;;;;8.43;6.73;;;2.80;99.90;;;;;;5049208;28;20223;-88
2021/01/12 06:21:35;;;;;;;9.13;6.20;;;2.80;99.90;;;;;;5048785;28;20904;-88
2021/01/12 06:24:09;;;;;;;14.25;6.25;;;2.90;99.90;;;;;;5049285;28;20736;-88
2021/01/12 06:26:37;;;;;;;7.20;5.47;;;2.90;99.90;;;;;;5045389;28;20287;-89
2021/01/12 06:29:06;;;;;;;7.82;5.85;;;2.90;99.90;;;;;;5051481;28;20458;-89
2021/01/12 06:31:33;;;;;;;7.63;5.37;;;2.90;99.90;;;;;;5055990;28;20203;-87
2021/01/12 06:34:00;;;;;;;9.17;6.40;;;3.00;99.90;;;;;;5056401;28;20880;-88
2021/01/12 06:36:26;;;;;;;7.35;5.50;;;3.00;99.90;;;;;;5054403;28;20457;-88
2021/01/12 06:38:56;;;;;;;6.03;5.20;;;3.00;99.90;;;;;;5059696;28;20311;-87
2021/01/12 06:41:22;;;;;;;6.73;5.80;;;3.00;99.90;;;;;;5043982;28;20449;-86
2021/01/12 06:43:50;;;;;;;9.32;6.25;;;3.00;99.90;;;;;;5074215;28;20478;-88
2021/01/12 06:46:17;;;;;;;9.02;5.82;;;3.00;99.90;;;;;;5068624;28;20199;-84
2021/01/12 06:48:44;;;;;;;7.75;5.57;;;3.00;99.90;;;;;;5053455;28;20346;-92
2021/01/12 06:51:13;;;;;;;7.27;5.53;;;2.90;99.90;;;;;;5058577;28;20236;-88
2021/01/12 06:53:45;;;;;;;11.45;6.43;;;2.90;99.90;;;;;;5069106;28;20539;-86
2021/01/12 06:56:11;;;;;;;7.10;5.43;;;2.90;99.90;;;;;;5051721;28;20290;-90
2021/01/12 06:58:44;;;;;;;10.77;6.30;;;2.90;99.90;;;;;;5062128;28;20730;-82
2021/01/12 07:01:21;;;;;;;7.05;5.85;;;3.00;99.90;;;;;;5065017;28;20222;-87
2021/01/12 07:03:50;;;;;;;7.43;5.63;;;3.00;99.90;;;;;;5057730;28;20222;-87
2021/01/12 07:06:25;;;;;;;9.73;6.53;;;3.00;99.90;;;;;;5055737;28;20534;-87
2021/01/12 07:08:53;;;;;;;6.40;5.33;;;3.00;99.90;;;;;;5066815;28;20545;-86
2021/01/12 07:11:21;;;;;;;6.55;5.55;;;3.00;99.90;;;;;;5071095;28;20453;-88
2021/01/12 07:13:51;;;;;;;7.72;5.47;;;3.10;99.90;;;;;;5074338;28;20704;-88
2021/01/12 07:16:18;;;;;;;10.57;5.83;;;3.10;99.90;;;;;;5068721;28;20624;-88
2021/01/12 07:18:57;;;;;;;7.10;5.57;;;3.10;99.90;;;;;;5053254;28;20479;-88
2021/01/12 07:21:29;;;;;;;6.82;5.35;;;3.10;99.90;;;;;;5052096;28;20978;-88
2021/01/12 07:24:01;;;;;;;7.25;6.10;;;3.10;99.90;;;;;;5060653;28;20222;-88
2021/01/12 07:26:30;;;;;;;7.37;5.00;;;3.20;99.90;;;;;;5072111;28;20644;-88
2021/01/12 07:29:04;;;;;;;8.50;6.00;;;3.20;99.90;;;;;;5063495;28;20446;-88
2021/01/12 07:31:30;;;;;;;9.47;6.40;;;3.20;99.90;;;;;;5051921;28;20456;-88
2021/01/12 07:33:56;;;;;;;6.80;5.60;;;3.30;99.90;;;;;;5060131;28;20826;-88
2021/01/12 07:36:23;;;;;;;8.20;5.97;;;3.30;99.90;;;;;;5051691;28;20482;-89
2021/01/12 07:38:51;;;;;;;6.30;5.30;;;3.30;99.90;;;;;;5065505;28;20849;-88
2021/01/12 07:41:19;;;;;;;9.65;5.75;;;3.20;99.90;;;;;;5070392;28;20450;-87
2021/01/12 07:43:46;;;;;;;7.17;5.07;;;3.30;99.90;;;;;;5052616;28;20890;-93
2021/01/12 07:46:24;;;;;;;8.20;5.87;;;3.30;99.90;;;;;;5053316;28;20453;-93
2021/01/12 07:48:50;;;;;;;8.93;6.47;;;3.30;99.90;;;;;;5073811;28;20438;-92
2021/01/12 07:51:16;;;;;;;7.57;5.60;;;3.30;99.90;;;;;;5070904;28;20443;-95
2021/01/12 07:53:43;;;;;;;7.00;5.80;;;3.30;99.90;;;;;;5053329;28;20485;-92
2021/01/12 07:56:10;;;;;;;6.73;5.40;;;3.40;99.90;;;;;;5054140;28;20865;-92
2021/01/12 07:58:36;;;;;;;7.80;5.20;;;3.40;99.90;;;;;;5054632;28;20486;-93
2021/01/12 08:01:03;;;;;;;7.33;6.13;;;3.40;99.90;;;;;;5062097;28;20457;-90
2021/01/12 08:03:29;;;;;;;6.57;4.97;;;3.40;99.90;;;;;;5066229;28;20486;-91
2021/01/12 08:05:59;;;;;;;6.60;5.87;;;3.40;99.90;;;;;;5051539;28;20564;-95
2021/01/12 08:08:26;;;;;;;6.13;5.20;;;3.50;99.90;;;;;;5058170;28;20498;-93
2021/01/12 08:10:53;;;;;;;7.33;5.03;;;3.50;99.90;;;;;;5050896;28;20505;-92
2021/01/12 08:13:20;;;;;;;7.60;5.50;;;3.50;99.90;;;;;;5069951;28;20970;-88
2021/01/12 08:15:48;;;;;;;6.73;4.60;;;3.50;99.90;;;;;;5050597;28;20481;-87
2021/01/12 08:18:16;;;;;;;9.50;5.00;;;3.60;99.90;;;;;;5056411;28;20486;-87
2021/01/12 08:20:43;;;;;;;6.53;4.97;;;3.60;99.90;;;;;;5051129;28;20497;-87
2021/01/12 08:23:10;;;;;;;7.57;6.10;;;3.60;99.90;;;;;;5067050;28;20467;-88
2021/01/12 08:25:37;;;;;;;6.67;5.27;;;3.60;99.90;;;;;;5070544;28;20546;-87
2021/01/12 08:28:04;;;;;;;7.40;5.50;;;3.60;99.90;;;;;;5051910;28;20451;-88
2021/01/12 08:30:33;;;;;;;6.30;5.33;;;3.60;99.90;;;;;;5051998;28;20811;-86
2021/01/12 08:33:06;;;;;;;6.80;5.47;;;3.60;99.90;;;;;;5050881;28;20478;-86
2021/01/12 08:35:37;;;;;;;6.90;5.43;;;3.60;99.90;;;;;;5069314;28;20453;-88
2021/01/12 08:38:07;;;;;;;5.93;4.33;;;3.60;99.90;;;;;;5060940;28;20794;-87
2021/01/12 08:40:33;;;;;;;7.00;5.57;;;3.70;99.90;;;;;;5051294;28;20451;-88
2021/01/12 08:43:01;;;;;;;5.80;4.70;;;3.70;99.90;;;;;;5068281;28;20490;-88
2021/01/12 08:45:32;;;;;;;7.03;4.67;;;3.70;99.90;;;;;;5062553;28;20460;-88
2021/01/12 08:48:08;;;;;;;6.17;4.27;;;3.70;99.90;;;;;;5051260;28;20452;-88
2021/01/12 08:50:35;;;;;;;5.60;4.37;;;3.80;99.90;;;;;;5058987;28;20501;-87
2021/01/12 08:53:01;;;;;;;6.70;4.60;;;3.80;99.90;;;;;;5070769;28;20463;-86
2021/01/12 08:55:28;;;;;;;4.97;4.40;;;3.80;99.90;;;;;;5049631;28;20855;-88
2021/01/12 08:57:58;;;;;;;5.10;3.37;;;3.80;99.90;;;;;;5051771;28;20486;-84
2021/01/12 09:00:29;;;;;;;3.83;3.43;;;3.80;99.90;;;;;;5067630;28;20451;-84
2021/01/12 09:02:56;;;;;;;4.83;3.90;;;3.90;99.90;;;;;;5073930;28;20530;-87
2021/01/12 09:05:24;;;;;;;4.40;3.37;;;4.00;99.90;;;;;;5057529;28;20941;-89
2021/01/12 09:07:59;;;;;;;4.40;3.17;;;4.00;99.90;;;;;;5058755;28;20907;-89
2021/01/12 09:10:31;;;;;;;3.60;3.17;;;4.00;99.90;;;;;;5066153;28;20450;-88
2021/01/12 09:12:58;;;;;;;3.90;3.60;;;4.00;99.90;;;;;;5069876;28;20525;-88
2021/01/12 09:15:29;;;;;;;4.80;3.20;;;4.10;99.90;;;;;;5054777;28;20456;-92
2021/01/12 09:18:06;;;;;;;5.30;3.17;;;4.10;99.90;;;;;;5072239;28;20473;-86
2021/01/12 09:20:33;;;;;;;3.97;3.40;;;4.10;99.90;;;;;;5052423;28;20525;-87
2021/01/12 09:23:04;;;;;;;6.10;3.00;;;4.10;99.90;;;;;;5070577;28;20470;-86
2021/01/12 09:25:32;;;;;;;4.90;3.50;;;4.10;99.90;;;;;;5073812;28;20454;-86
2021/01/12 09:28:10;;;;;;;4.63;2.87;;;4.10;99.90;;;;;;5073586;28;20443;-87
2021/01/12 09:30:36;;;;;;;2.73;2.20;;;4.10;99.90;;;;;;5072328;28;20450;-86
2021/01/12 09:33:03;;;;;;;3.27;2.40;;;4.10;99.90;;;;;;5066934;28;20471;-88
2021/01/12 09:35:29;;;;;;;4.23;3.13;;;4.10;99.90;;;;;;5076276;28;20455;-86
2021/01/12 09:37:57;;;;;;;5.20;3.03;;;4.10;99.90;;;;;;5072589;28;20479;-87
2021/01/12 09:40:23;;;;;;;4.10;3.00;;;4.10;99.90;;;;;;5074275;28;20464;-86
2021/01/12 09:42:49;;;;;;;4.30;3.10;;;4.10;99.90;;;;;;5074216;28;20500;-87
2021/01/12 09:45:15;;;;;;;3.67;2.80;;;4.10;99.90;;;;;;5073947;28;20466;-87
2021/01/12 09:47:41;;;;;;;2.80;2.50;;;4.10;99.90;;;;;;5074089;28;20459;-87
2021/01/12 09:50:09;;;;;;;3.33;2.53;;;4.00;99.90;;;;;;5074541;28;20451;-87
2021/01/12 09:52:35;;;;;;;2.50;2.23;;;4.00;99.90;;;;;;5073943;28;20451;-87
2021/01/12 09:55:03;;;;;;;2.43;1.80;;;4.00;99.90;;;;;;5073612;28;20463;-87
2021/01/12 09:57:29;;;;;;;2.70;2.40;;;4.00;99.90;;;;;;5074178;28;20493;-88
2021/01/12 09:59:55;;;;;;;3.57;2.03;;;3.90;99.90;;;;;;5074327;28;20450;-88
2021/01/12 10:02:22;;;;;;;1.50;1.40;;;3.80;99.90;;;;;;5074111;28;20916;-87
2021/01/12 10:04:48;;;;;;;4.57;1.87;;;3.80;99.90;;;;;;5073546;28;20467;-88
2021/01/12 10:07:14;;;;;;;2.30;2.00;;;3.70;99.90;;;;;;5073025;28;20549;-87
2021/01/12 10:09:40;;;;;;;2.63;2.20;;;3.70;99.90;;;;;;5072891;28;20437;-87
2021/01/12 10:12:08;;;;;;;4.47;1.63;;;3.60;99.90;;;;;;5073465;28;20457;-87
2021/01/12 10:14:34;;;;;;;2.40;1.63;;;3.60;99.90;;;;;;5073068;28;20959;-87
2021/01/12 10:17:02;;;;;;;3.35;1.73;;;3.60;99.90;;;;;;5073346;28;20447;-87
2021/01/12 10:19:29;;;;;;;2.40;1.60;;;3.60;99.90;;;;;;5073544;28;20673;-88
2021/01/12 10:21:55;;;;;;;2.77;2.10;;;3.50;99.90;;;;;;5072981;28;20948;-87
2021/01/12 10:24:22;;;;;;;2.00;1.50;;;3.50;99.90;;;;;;5072803;28;20493;-87
2021/01/12 10:26:52;;;;;;;4.40;1.70;;;3.50;99.90;;;;;;5073139;28;20960;-87
2021/01/12 10:29:20;;;;;;;2.75;1.45;;;3.50;99.90;;;;;;5073233;28;20433;-87
2021/01/12 10:31:50;;;;;;;3.30;2.93;;;3.50;99.90;;;;;;5073004;28;20208;-91
2021/01/12 10:34:16;;;;;;;2.40;1.60;;;3.50;99.90;;;;;;5073030;28;20457;-87
2021/01/12 10:36:42;;;;;;;2.93;1.50;;;3.50;99.90;;;;;;5072742;28;20458;-88
2021/01/12 10:39:09;;;;;;;2.93;1.70;;;3.50;99.90;;;;;;5072671;28;20874;-87
2021/01/12 10:41:39;;;;;;;3.10;2.10;;;3.50;99.90;;;;;;5072641;28;20817;-87
2021/01/12 10:44:05;;;;;;;2.73;2.00;;;3.50;99.90;;;;;;5072808;28;20823;-88
2021/01/12 10:46:32;;;;;;;2.45;1.92;;;3.60;99.90;;;;;;5072368;28;20458;-88
2021/01/12 10:48:59;;;;;;;1.53;1.43;;;3.60;99.90;;;;;;5072529;28;20206;-87
2021/01/12 10:51:25;;;;;;;1.93;1.73;;;3.60;99.90;;;;;;5072483;28;20450;-87
2021/01/12 10:53:55;;;;;;;1.10;1.00;;;3.60;99.90;;;;;;5072025;28;20856;-87
2021/01/12 10:56:21;;;;;;;1.70;1.23;;;3.60;99.90;;;;;;5072497;28;20454;-87
2021/01/12 10:58:48;;;;;;;6.37;1.50;;;3.60;99.90;;;;;;5072519;28;20490;-87
2021/01/12 11:01:14;;;;;;;2.20;1.40;;;3.60;99.90;;;;;;5072677;28;20458;-86
2021/01/12 11:03:41;;;;;;;3.20;1.83;;;3.60;99.90;;;;;;5072474;28;20896;-86
2021/01/12 11:06:08;;;;;;;1.27;0.97;;;3.60;99.90;;;;;;5071881;28;20453;-86
2021/01/12 11:08:34;;;;;;;1.17;0.90;;;3.60;99.90;;;;;;5072036;28;20446;-87
2021/01/12 11:11:01;;;;;;;3.57;1.80;;;3.60;99.90;;;;;;5072289;28;20855;-87
2021/01/12 11:13:27;;;;;;;1.33;1.10;;;3.60;99.90;;;;;;5072237;28;20513;-87
2021/01/12 11:15:57;;;;;;;2.30;1.10;;;3.60;99.90;;;;;;5071810;28;20515;-87
2021/01/12 11:18:23;;;;;;;1.17;1.07;;;3.60;99.90;;;;;;5071861;28;20613;-88
2021/01/12 11:20:50;;;;;;;1.10;0.80;;;3.60;99.90;;;;;;5070827;28;20456;-87
2021/01/12 11:23:16;;;;;;;1.63;1.10;;;3.60;99.90;;;;;;5071642;28;20481;-87
2021/01/12 11:25:42;;;;;;;1.60;1.10;;;3.60;99.90;;;;;;5071609;28;20446;-88
2021/01/12 11:28:08;;;;;;;1.15;0.95;;;3.60;99.90;;;;;;5072208;28;20495;-85
2021/01/12 11:30:35;;;;;;;1.53;0.83;;;3.60;99.90;;;;;;5072042;28;20211;-87
2021/01/12 11:33:01;;;;;;;1.00;0.60;;;3.60;99.90;;;;;;5071914;28;20474;-87
2021/01/12 11:35:27;;;;;;;1.90;0.80;;;3.70;99.90;;;;;;5071792;28;20454;-87
2021/01/12 11:37:54;;;;;;;0.80;0.60;;;3.70;99.90;;;;;;5071903;28;20480;-87
2021/01/12 11:40:23;;;;;;;1.00;0.90;;;3.70;99.90;;;;;;5071987;28;20456;-87
2021/01/12 11:42:51;;;;;;;6.60;0.80;;;3.70;99.90;;;;;;5057131;28;20444;-87
2021/01/12 11:45:17;;;;;;;0.87;0.73;;;3.70;99.90;;;;;;5050922;28;20486;-91
2021/01/12 11:47:44;;;;;;;2.20;1.20;;;3.80;99.90;;;;;;5051359;28;20451;-88
2021/01/12 11:50:11;;;;;;;1.60;0.83;;;3.80;99.90;;;;;;5051532;28;20451;-88
2021/01/12 11:52:37;;;;;;;0.67;0.50;;;3.70;99.90;;;;;;5058600;28;20466;-88
2021/01/12 11:55:06;;;;;;;1.40;0.90;;;3.70;99.90;;;;;;5053950;28;20452;-87
2021/01/12 11:57:32;;;;;;;1.30;0.97;;;3.70;99.90;;;;;;5050667;28;20479;-87
2021/01/12 11:59:58;;;;;;;1.73;0.70;;;3.70;99.90;;;;;;5050999;28;20828;-87
2021/01/12 12:02:25;;;;;;;1.10;0.83;;;3.70;99.90;;;;;;5050974;28;20446;-87
2021/01/12 12:04:51;;;;;;;1.00;0.80;;;3.70;99.90;;;;;;5049134;28;20467;-87
2021/01/12 12:07:17;;;;;;;0.97;0.87;;;3.70;99.90;;;;;;5050653;28;20444;-86
2021/01/12 12:09:43;;;;;;;1.00;0.70;;;3.70;99.90;;;;;;5050926;28;20466;-87
2021/01/12 12:12:11;;;;;;;1.10;0.70;;;3.80;99.90;;;;;;5051147;28;20443;-87
2021/01/12 12:14:37;;;;;;;1.07;0.93;;;3.70;99.90;;;;;;5050753;28;20975;-87
2021/01/12 12:17:04;;;;;;;0.87;0.60;;;3.80;99.90;;;;;;5050957;28;20535;-87
2021/01/12 12:19:31;;;;;;;1.50;0.90;;;3.80;99.90;;;;;;5050667;28;20907;-87
2021/01/12 12:21:59;;;;;;;1.00;0.87;;;3.80;99.90;;;;;;5050893;28;20444;-87
2021/01/12 12:24:28;;;;;;;0.90;0.80;;;3.80;99.90;;;;;;5050339;28;20467;-87
2021/01/12 12:26:56;;;;;;;0.80;0.77;;;3.80;99.90;;;;;;5048589;28;20446;-86
2021/01/12 12:29:23;;;;;;;0.70;0.70;;;3.90;99.90;;;;;;5048531;28;20873;-87
2021/01/12 12:31:53;;;;;;;1.10;0.60;;;3.80;99.90;;;;;;5050885;28;20565;-87
2021/01/12 12:34:19;;;;;;;0.80;0.80;;;3.80;99.90;;;;;;5054902;28;20503;-87
2021/01/12 12:36:46;;;;;;;0.80;0.80;;;3.90;99.90;;;;;;5054576;28;20436;-87
2021/01/12 12:39:12;;;;;;;1.73;1.17;;;3.80;99.90;;;;;;5054720;28;20515;-90
2021/01/12 12:41:39;;;;;;;1.77;0.70;;;3.90;99.90;;;;;;5055042;28;20458;-88
2021/01/12 12:44:05;;;;;;;0.80;0.70;;;3.80;99.90;;;;;;5054348;28;20459;-88
2021/01/12 12:46:32;;;;;;;1.07;0.80;;;3.80;99.90;;;;;;5053550;28;20451;-87
2021/01/12 12:48:58;;;;;;;1.07;0.70;;;3.80;99.90;;;;;;5054650;28;20497;-88
2021/01/12 12:51:25;;;;;;;1.37;1.07;;;3.90;99.90;;;;;;5054782;28;20961;-88
2021/01/12 12:53:52;;;;;;;0.80;0.80;;;3.90;99.90;;;;;;5052358;28;20479;-87